Кужинский Коноплянник

Карта отелей и гостиниц, располагающихся рядом с аэропортом Кужинский Коноплянник :

Кужинский Коноплянник Марий Эл 56° 44' 49.8012" N, 47° 14' 21.7788" E
Код аэродрома ИКАО
HET7
Код аэродрома RU
ХЕТ7
Координаты
N56.74717° E047.23938°
Превышение над уровнем моря
86
Основная полоса
07/25
Курс магнитный
065/245
Длина основной ВПП
19
Ширина основной ВПП
20
Покрытие основной ВПП
Твёрдое (бетон)
Освещение ВПП
Нет
Тип: 
Вертодром
Класс аэродрома: 
Принадлежность: 
ГА
Статус: 
Действующий
Сайт: 
E-mail аэродрома: 
Страна: 
Россия
Регион: 
Марий Эл
Город: 
Дополнительная информация: 
Оператор: нет данных.

Найти трансфер

С помощью этой формы Вы можете найти трансфер из аэропорта Кужинский Коноплянник в город, аэропорт или вокзал:

Карта места

Javascript is required to view this map.

Погода в аэропортах:

Авиационная погода в Сургуте

Регион: 
Погода METAR: 
USRR 170900Z 25008MPS 8000 DRSN BKN025 M16/M18 Q0992 R25/39//37 NOSIG RMK QFE739
Время наблюдения
2021-01-17T09:00:00Z
Температура C
-16.0
Точка росы
-18.0
Направление ветра
250
Скорость ветра (узлы)
16
Метео видимость
4.97
Явления погоды
DRSN
Условия полета
MVFR
Аэропорт подробнее: 

Авиационная погода в Алматы

Регион: 
Погода METAR: 
UAAA 170900Z 04002MPS 3800 FU FEW200 02/M09 Q1017 R05L/3///50 R05R/3///45 NOSIG
Время наблюдения
2021-01-17T09:00:00Z
Температура C
2.0
Точка росы
-9.0
Направление ветра
40
Скорость ветра (узлы)
4
Метео видимость
2.36
Явления погоды
FU
Условия полета
IFR
Аэропорт подробнее: 

Авиационная погода в Куопио

Регион: 
Погода METAR: 
EFKU 170850Z AUTO 26004KT 9999 -SHSN OVC004 M05/M06 Q1014
Время наблюдения
2021-01-17T08:50:00Z
Температура C
-5.0
Точка росы
-6.0
Направление ветра
260
Скорость ветра (узлы)
4
Метео видимость
6.21
Явления погоды
-SHSN
Условия полета
LIFR

Авиационная погода в Орске

Регион: 
Погода METAR: 
UWOR 170900Z 26008MPS 9000 DRSN BKN019 M06/M09 Q1011 R25/950240 NOSIG RMK QFE734/0979
Время наблюдения
2021-01-17T09:00:00Z
Температура C
-6.0
Точка росы
-9.0
Направление ветра
260
Скорость ветра (узлы)
16
Метео видимость
5.59
Явления погоды
DRSN
Условия полета
MVFR
Аэропорт подробнее: